createdAt,value
2023-01-27T00:01:17.838Z,45.32
2023-01-27T00:03:46.438Z,45.38
2023-01-27T00:06:14.772Z,45.41
2023-01-27T00:08:43.542Z,45.39
2023-01-27T00:11:12.375Z,45.45
2023-01-27T00:13:41.395Z,45.43
2023-01-27T00:16:10.591Z,45.64
2023-01-27T00:18:38.836Z,45.64
2023-01-27T00:21:07.003Z,45.70
2023-01-27T00:23:35.201Z,45.83
2023-01-27T00:26:06.198Z,45.79
2023-01-27T00:28:36.488Z,45.87
2023-01-27T00:31:07.096Z,45.95
2023-01-27T00:33:35.823Z,45.95
2023-01-27T00:36:07.007Z,46.03
2023-01-27T00:38:37.089Z,45.96
2023-01-27T00:41:07.262Z,45.94
2023-01-27T00:43:35.903Z,46.09
2023-01-27T00:46:04.995Z,46.03
2023-01-27T00:48:34.261Z,46.09
2023-01-27T00:51:03.241Z,46.45
2023-01-27T00:53:32.421Z,46.28
2023-01-27T00:56:01.260Z,46.31
2023-01-27T00:58:30.071Z,46.29
2023-01-27T01:01:03.519Z,46.45
2023-01-27T01:03:34.050Z,46.38
2023-01-27T01:06:06.073Z,46.45
2023-01-27T01:08:36.871Z,46.24
2023-01-27T01:11:07.877Z,46.39
2023-01-27T01:13:36.600Z,46.35
2023-01-27T01:16:07.353Z,46.37
2023-01-27T01:18:36.281Z,46.60
2023-01-27T01:21:06.535Z,46.51
2023-01-27T01:23:39.895Z,46.63
2023-01-27T01:26:11.289Z,46.65
2023-01-27T01:28:39.588Z,46.82
2023-01-27T01:31:12.063Z,46.89
2023-01-27T01:33:40.664Z,46.85
2023-01-27T01:36:12.091Z,46.69
2023-01-27T01:38:41.247Z,46.74
2023-01-27T01:41:14.255Z,46.88
2023-01-27T01:43:43.504Z,47.00
2023-01-27T01:46:12.383Z,46.77
2023-01-27T01:49:03.475Z,46.92
2023-01-27T01:51:38.802Z,46.95
2023-01-27T01:54:15.211Z,46.85
2023-01-27T01:57:00.838Z,46.95
2023-01-27T01:59:33.564Z,47.04
2023-01-27T02:02:09.719Z,47.14
2023-01-27T02:04:45.667Z,47.14
2023-01-27T02:07:14.194Z,47.09
2023-01-27T02:09:42.801Z,46.95
2023-01-27T02:12:11.249Z,47.14
2023-01-27T02:14:41.466Z,47.10
2023-01-27T02:17:13.396Z,47.12
2023-01-27T02:20:15.448Z,47.17
2023-01-27T02:23:12.572Z,47.26
2023-01-27T02:25:49.750Z,46.88
2023-01-27T02:28:18.457Z,47.13
2023-01-27T02:30:47.542Z,47.22
2023-01-27T02:33:16.561Z,47.20
2023-01-27T02:35:59.651Z,47.16
2023-01-27T02:38:31.370Z,47.14
2023-01-27T02:41:06.434Z,47.26
2023-01-27T02:43:35.060Z,47.19
2023-01-27T02:46:05.482Z,47.18
2023-01-27T02:48:34.587Z,47.33
2023-01-27T02:51:03.168Z,47.37
2023-01-27T02:53:31.982Z,47.25
2023-01-27T02:56:00.464Z,47.23
2023-01-27T02:58:29.113Z,46.95
2023-01-27T03:00:57.450Z,47.25
2023-01-27T03:03:27.162Z,47.21
2023-01-27T03:05:56.183Z,47.11
2023-01-27T03:08:24.814Z,47.19
2023-01-27T03:10:55.328Z,47.21
2023-01-27T03:13:24.450Z,47.31
2023-01-27T03:15:52.800Z,47.17
2023-01-27T03:18:21.863Z,47.29
2023-01-27T03:20:50.294Z,47.41
2023-01-27T03:23:20.326Z,47.17
2023-01-27T03:25:48.886Z,47.31
2023-01-27T03:28:17.140Z,47.35
2023-01-27T03:30:45.684Z,47.31
2023-01-27T03:33:14.770Z,47.31
2023-01-27T03:35:42.939Z,47.30
2023-01-27T03:38:13.055Z,47.43
2023-01-27T03:40:41.609Z,47.39
2023-01-27T03:43:09.894Z,47.39
2023-01-27T03:45:38.884Z,47.54
2023-01-27T03:48:07.635Z,47.35
2023-01-27T03:50:35.835Z,47.37
2023-01-27T03:53:05.605Z,47.62
2023-01-27T03:55:36.240Z,47.51
2023-01-27T03:58:15.240Z,47.60
2023-01-27T04:00:44.347Z,47.55
2023-01-27T04:03:12.545Z,47.54
2023-01-27T04:05:41.212Z,47.57
2023-01-27T04:08:10.202Z,47.53
2023-01-27T04:10:38.896Z,47.60
2023-01-27T04:13:07.552Z,47.55
2023-01-27T04:15:36.014Z,47.63
2023-01-27T04:18:04.733Z,47.61
2023-01-27T04:20:32.913Z,47.48
2023-01-27T04:23:01.973Z,47.69
2023-01-27T04:25:30.286Z,47.55
2023-01-27T04:27:58.965Z,47.52
2023-01-27T04:30:27.315Z,47.63
2023-01-27T04:32:56.078Z,47.54
2023-01-27T04:35:27.886Z,47.65
2023-01-27T04:38:02.486Z,47.58
2023-01-27T04:40:30.655Z,47.50
2023-01-27T04:42:58.840Z,47.63
2023-01-27T04:45:27.698Z,47.63
2023-01-27T04:47:57.151Z,47.47
2023-01-27T04:50:25.313Z,47.60
2023-01-27T04:52:53.677Z,47.65
2023-01-27T04:55:22.300Z,47.67
2023-01-27T04:57:50.975Z,47.81
2023-01-27T05:00:20.408Z,47.68
2023-01-27T05:02:49.471Z,47.69
2023-01-27T05:05:18.989Z,47.58
2023-01-27T05:07:47.963Z,47.73
2023-01-27T05:10:16.488Z,47.80
2023-01-27T05:12:44.640Z,47.89
2023-01-27T05:15:13.936Z,47.77
2023-01-27T05:17:42.264Z,47.93
2023-01-27T05:20:11.565Z,47.89
2023-01-27T05:22:39.757Z,47.90
2023-01-27T05:25:08.529Z,47.86
2023-01-27T05:27:37.263Z,47.90
2023-01-27T05:30:06.672Z,48.00
2023-01-27T05:32:35.291Z,47.95
2023-01-27T05:35:03.559Z,47.98
2023-01-27T05:37:32.755Z,47.97
2023-01-27T05:40:01.525Z,47.96
2023-01-27T05:42:29.632Z,47.98
2023-01-27T05:44:57.900Z,48.07
2023-01-27T05:47:26.651Z,48.09
2023-01-27T05:49:55.994Z,48.02
2023-01-27T05:52:24.753Z,48.11
2023-01-27T05:54:52.921Z,48.12
2023-01-27T05:57:21.184Z,48.15
2023-01-27T05:59:50.821Z,48.17
2023-01-27T06:02:21.871Z,48.13
2023-01-27T06:04:51.502Z,48.09
2023-01-27T06:07:19.596Z,48.28
2023-01-27T06:09:48.528Z,48.27
2023-01-27T06:12:17.955Z,48.35
2023-01-27T06:14:46.160Z,48.26
2023-01-27T06:17:15.587Z,48.42
2023-01-27T06:19:44.522Z,48.47
2023-01-27T06:22:12.834Z,48.38
2023-01-27T06:24:41.043Z,48.40
2023-01-27T06:27:09.457Z,48.52
2023-01-27T06:29:38.718Z,48.55
2023-01-27T06:32:07.579Z,48.64
2023-01-27T06:34:36.972Z,48.55
2023-01-27T06:37:05.642Z,48.63
2023-01-27T06:39:34.169Z,48.66
2023-01-27T06:42:03.099Z,48.70
2023-01-27T06:44:32.443Z,48.48
2023-01-27T06:47:02.018Z,48.54
2023-01-27T06:49:30.883Z,48.64
2023-01-27T06:51:59.240Z,48.64
2023-01-27T06:54:27.400Z,48.44
2023-01-27T06:56:55.703Z,48.59
2023-01-27T06:59:23.953Z,48.65
2023-01-27T07:01:52.852Z,48.65
2023-01-27T07:04:25.099Z,48.65
2023-01-27T07:06:53.327Z,48.65
2023-01-27T07:09:22.706Z,48.56
2023-01-27T07:11:52.082Z,48.62
2023-01-27T07:14:21.424Z,48.56
2023-01-27T07:16:49.639Z,48.74
2023-01-27T07:19:19.722Z,48.77
2023-01-27T07:21:48.343Z,48.70
2023-01-27T07:24:17.251Z,48.61
2023-01-27T07:26:46.176Z,48.65
2023-01-27T07:29:15.946Z,48.58
2023-01-27T07:31:45.695Z,48.65
2023-01-27T07:34:15.198Z,48.69
2023-01-27T07:36:44.332Z,48.62
2023-01-27T07:39:12.808Z,48.68
2023-01-27T07:41:41.638Z,48.65
2023-01-27T07:44:11.773Z,48.83
2023-01-27T07:46:40.542Z,49.22
2023-01-27T07:49:09.167Z,48.91
2023-01-27T07:51:38.598Z,47.89
2023-01-27T07:54:08.197Z,46.91
2023-01-27T07:56:36.462Z,46.23
2023-01-27T07:59:05.703Z,45.16
2023-01-27T08:01:34.992Z,43.93
2023-01-27T08:04:04.240Z,42.41
2023-01-27T08:06:33.582Z,40.64
2023-01-27T08:09:02.203Z,38.97
2023-01-27T08:11:31.115Z,37.18
2023-01-27T08:13:59.181Z,35.30
2023-01-27T08:16:27.836Z,33.90
2023-01-27T08:18:56.931Z,32.67
2023-01-27T08:21:25.405Z,31.29
2023-01-27T08:23:54.746Z,30.31
2023-01-27T08:26:23.449Z,29.57
2023-01-27T08:28:52.008Z,29.06
2023-01-27T08:31:20.209Z,28.26
2023-01-27T08:33:53.198Z,27.57
2023-01-27T08:36:23.891Z,26.72
2023-01-27T08:38:53.371Z,25.79
2023-01-27T08:41:25.396Z,24.86
2023-01-27T08:43:56.114Z,24.05
2023-01-27T08:46:24.824Z,23.61
2023-01-27T08:48:53.655Z,23.01
2023-01-27T08:51:23.988Z,22.35
2023-01-27T08:53:52.289Z,21.75
2023-01-27T08:56:21.025Z,21.33
2023-01-27T08:58:49.870Z,20.95
2023-01-27T09:01:20.545Z,20.52
2023-01-27T09:03:49.806Z,19.89
2023-01-27T09:06:19.641Z,19.25
2023-01-27T09:08:48.135Z,18.98
2023-01-27T09:11:17.772Z,18.00
2023-01-27T09:13:46.612Z,17.69
2023-01-27T09:16:16.167Z,17.33
2023-01-27T09:18:44.812Z,17.26
2023-01-27T09:21:13.277Z,16.96
2023-01-27T09:23:41.704Z,16.58
2023-01-27T09:26:11.658Z,16.30
2023-01-27T09:28:40.533Z,15.99
2023-01-27T09:31:09.456Z,16.07
2023-01-27T09:33:38.628Z,15.76
2023-01-27T09:36:13.150Z,15.28
2023-01-27T09:38:46.920Z,14.99
2023-01-27T09:41:24.221Z,14.74
2023-01-27T09:44:21.876Z,14.66
2023-01-27T09:47:22.370Z,14.37
2023-01-27T09:50:29.845Z,14.32
2023-01-27T09:53:35.174Z,14.33
2023-01-27T09:56:32.479Z,14.21
2023-01-27T09:59:15.360Z,14.26
2023-01-27T10:02:11.661Z,14.62
2023-01-27T10:05:01.579Z,14.62
2023-01-27T10:07:54.183Z,14.83
2023-01-27T10:10:56.514Z,14.74
2023-01-27T10:13:52.949Z,14.80
2023-01-27T10:16:27.099Z,14.75
2023-01-27T10:19:29.377Z,15.01
2023-01-27T10:22:03.976Z,14.73
2023-01-27T10:24:41.401Z,15.17
2023-01-27T10:27:22.891Z,14.98
2023-01-27T10:29:58.741Z,14.89
2023-01-27T10:32:43.109Z,15.08
2023-01-27T10:35:19.655Z,15.06
2023-01-27T10:38:20.073Z,14.60
2023-01-27T10:41:03.759Z,14.39
2023-01-27T10:43:53.333Z,14.22
2023-01-27T10:46:21.580Z,14.74
2023-01-27T10:49:01.401Z,14.41
2023-01-27T10:51:39.241Z,14.14
2023-01-27T10:54:16.134Z,14.09
2023-01-27T10:56:56.655Z,14.24
2023-01-27T10:59:39.874Z,15.23
2023-01-27T11:02:35.114Z,15.31
2023-01-27T11:05:10.647Z,15.00
2023-01-27T11:07:49.620Z,14.57
2023-01-27T11:10:20.732Z,14.23
2023-01-27T11:12:54.698Z,14.90
2023-01-27T11:15:30.639Z,14.35
2023-01-27T11:18:11.122Z,14.56
2023-01-27T11:20:45.749Z,14.38
2023-01-27T11:23:25.918Z,14.39
2023-01-27T11:26:25.093Z,14.69
2023-01-27T11:29:27.521Z,15.18
2023-01-27T11:32:34.298Z,14.64
2023-01-27T11:35:13.177Z,14.96
2023-01-27T11:37:44.114Z,15.54
2023-01-27T11:40:31.890Z,15.91
2023-01-27T11:43:03.454Z,15.74
2023-01-27T11:45:36.793Z,16.67
2023-01-27T11:48:12.034Z,17.03
2023-01-27T11:50:42.295Z,17.25
2023-01-27T11:53:16.922Z,16.81
2023-01-27T11:55:59.124Z,17.38
2023-01-27T11:58:50.584Z,17.70
2023-01-27T12:01:29.378Z,17.26
2023-01-27T12:04:11.986Z,17.88
2023-01-27T12:06:42.994Z,18.28
2023-01-27T12:09:34.972Z,18.94
2023-01-27T12:12:19.241Z,18.43
2023-01-27T12:14:51.274Z,18.94
2023-01-27T12:18:02.984Z,19.22
2023-01-27T12:20:44.705Z,19.08
2023-01-27T12:23:37.035Z,19.85
2023-01-27T12:26:09.134Z,21.05
2023-01-27T12:28:51.633Z,21.51
2023-01-27T12:31:32.037Z,21.82
2023-01-27T12:34:04.094Z,22.46
2023-01-27T12:36:42.562Z,22.60
2023-01-27T12:39:48.962Z,22.52
2023-01-27T12:42:41.712Z,22.84
2023-01-27T12:45:21.309Z,23.40
2023-01-27T12:48:18.543Z,23.68
2023-01-27T12:50:49.868Z,24.05
2023-01-27T12:53:27.071Z,24.50
2023-01-27T12:56:08.049Z,25.14
2023-01-27T12:58:46.751Z,25.36
2023-01-27T13:01:34.116Z,25.94
2023-01-27T13:04:29.587Z,26.70
2023-01-27T13:07:08.007Z,26.77
2023-01-27T13:10:12.530Z,27.19
2023-01-27T13:12:57.881Z,27.28
2023-01-27T13:15:30.769Z,27.11
2023-01-27T13:18:12.099Z,27.59
2023-01-27T13:20:45.744Z,28.18
2023-01-27T13:23:18.123Z,28.45
2023-01-27T13:26:02.229Z,28.71
2023-01-27T13:28:56.979Z,28.67
2023-01-27T13:31:40.824Z,28.67
2023-01-27T13:34:25.018Z,28.85
2023-01-27T13:37:01.999Z,29.50
2023-01-27T13:39:56.629Z,29.23
2023-01-27T13:42:43.918Z,29.62
2023-01-27T13:45:17.518Z,30.22
2023-01-27T13:48:05.764Z,30.15
2023-01-27T13:50:51.264Z,30.20
2023-01-27T13:53:20.234Z,30.44
2023-01-27T13:56:12.740Z,30.56
2023-01-27T13:59:19.703Z,30.61
2023-01-27T14:02:20.207Z,31.07
2023-01-27T14:04:57.741Z,30.84
2023-01-27T14:07:41.151Z,30.80
2023-01-27T14:11:03.728Z,30.94
2023-01-27T14:13:48.359Z,31.21
2023-01-27T14:16:41.536Z,31.10
2023-01-27T14:19:28.134Z,30.90
2023-01-27T14:22:23.101Z,31.48
2023-01-27T14:25:09.926Z,31.75
2023-01-27T14:27:46.242Z,31.76
2023-01-27T14:30:38.822Z,32.04
2023-01-27T14:33:29.366Z,32.45
2023-01-27T14:36:20.041Z,32.45
2023-01-27T14:38:57.428Z,32.65
2023-01-27T14:42:00.125Z,32.86
2023-01-27T14:45:03.768Z,32.84
2023-01-27T14:47:51.718Z,32.85
2023-01-27T14:50:28.557Z,33.15
2023-01-27T14:53:15.854Z,33.19
2023-01-27T14:55:56.916Z,33.84
2023-01-27T14:59:07.059Z,34.42
2023-01-27T15:02:10.140Z,34.81
2023-01-27T15:04:47.278Z,34.77
2023-01-27T15:07:24.819Z,35.11
2023-01-27T15:10:17.784Z,35.18
2023-01-27T15:13:03.506Z,35.55
2023-01-27T15:15:54.205Z,35.90
2023-01-27T15:19:14.249Z,35.95
2023-01-27T15:21:54.628Z,36.53
2023-01-27T15:24:31.629Z,36.81
2023-01-27T15:27:01.677Z,36.76
2023-01-27T15:29:31.372Z,37.11
2023-01-27T15:32:33.349Z,37.23
2023-01-27T15:35:47.229Z,37.47
2023-01-27T15:38:31.337Z,37.63
2023-01-27T15:41:15.190Z,37.78
2023-01-27T15:44:16.908Z,38.05
2023-01-27T15:46:48.706Z,38.42
2023-01-27T15:49:31.358Z,38.82
2023-01-27T15:52:28.815Z,39.10
2023-01-27T15:54:59.935Z,39.08
2023-01-27T15:57:37.190Z,38.77
2023-01-27T16:00:29.211Z,38.62
2023-01-27T16:03:01.582Z,38.82
2023-01-27T16:05:43.672Z,38.90
2023-01-27T16:08:17.071Z,38.96
2023-01-27T16:10:46.003Z,39.20
2023-01-27T16:13:25.836Z,39.45
2023-01-27T16:16:19.528Z,39.49
2023-01-27T16:19:06.420Z,39.61
2023-01-27T16:21:49.042Z,39.82
2023-01-27T16:24:26.551Z,39.79
2023-01-27T16:27:14.566Z,40.16
2023-01-27T16:29:50.099Z,40.09
2023-01-27T16:32:23.604Z,40.47
2023-01-27T16:35:05.801Z,40.63
2023-01-27T16:37:38.317Z,40.70
2023-01-27T16:40:22.207Z,40.71
2023-01-27T16:43:00.785Z,40.91
2023-01-27T16:45:41.476Z,41.03
2023-01-27T16:48:36.832Z,41.02
2023-01-27T16:51:10.573Z,40.80
2023-01-27T16:53:44.229Z,40.95
2023-01-27T16:56:35.737Z,41.00
2023-01-27T16:59:07.851Z,41.31
2023-01-27T17:01:50.637Z,41.60
2023-01-27T17:04:28.501Z,41.63
2023-01-27T17:07:05.640Z,41.68
2023-01-27T17:09:41.076Z,42.27
2023-01-27T17:12:35.332Z,42.15
2023-01-27T17:15:21.120Z,42.24
2023-01-27T17:17:50.597Z,42.38
2023-01-27T17:20:30.606Z,42.29
2023-01-27T17:23:00.725Z,42.26
2023-01-27T17:25:37.884Z,42.71
2023-01-27T17:28:21.632Z,42.98
2023-01-27T17:30:50.985Z,43.13
2023-01-27T17:33:22.512Z,43.26
2023-01-27T17:35:56.175Z,43.21
2023-01-27T17:38:36.313Z,43.24
2023-01-27T17:41:05.038Z,43.54
2023-01-27T17:43:40.670Z,43.79
2023-01-27T17:46:19.319Z,44.19
2023-01-27T17:48:54.745Z,44.61
2023-01-27T17:51:27.359Z,44.65
2023-01-27T17:53:56.475Z,44.60
2023-01-27T17:56:31.957Z,44.82
2023-01-27T17:59:11.563Z,45.12
2023-01-27T18:01:40.525Z,45.28
2023-01-27T18:04:09.911Z,45.32
2023-01-27T18:06:41.098Z,45.43
2023-01-27T18:09:26.751Z,45.29
2023-01-27T18:12:00.551Z,45.39
2023-01-27T18:14:34.660Z,45.40
2023-01-27T18:17:20.526Z,45.44
2023-01-27T18:19:54.741Z,45.48
2023-01-27T18:22:25.339Z,45.67
2023-01-27T18:24:57.576Z,45.63
2023-01-27T18:27:36.886Z,45.72
2023-01-27T18:30:15.090Z,45.75
2023-01-27T18:32:45.952Z,45.83
2023-01-27T18:35:27.520Z,45.99
2023-01-27T18:38:01.125Z,46.22
2023-01-27T18:40:32.868Z,46.19
2023-01-27T18:43:04.676Z,46.22
2023-01-27T18:45:34.369Z,46.26
2023-01-27T18:48:15.499Z,46.55
2023-01-27T18:50:46.729Z,46.58
2023-01-27T18:53:20.365Z,46.71
2023-01-27T18:55:49.126Z,46.82
2023-01-27T18:58:17.559Z,46.96
2023-01-27T19:00:50.067Z,47.01
2023-01-27T19:03:24.746Z,47.05
2023-01-27T19:05:55.418Z,47.12
2023-01-27T19:08:24.978Z,47.25
2023-01-27T19:10:53.306Z,47.11
2023-01-27T19:13:21.780Z,47.26
2023-01-27T19:15:55.009Z,47.13
2023-01-27T19:18:33.752Z,47.36
2023-01-27T19:21:03.290Z,47.30
2023-01-27T19:23:32.051Z,47.32
2023-01-27T19:26:05.305Z,47.32
2023-01-27T19:28:37.436Z,47.34
2023-01-27T19:31:06.704Z,47.37
2023-01-27T19:33:36.161Z,47.39
2023-01-27T19:36:33.448Z,47.49
2023-01-27T19:39:13.320Z,47.51
2023-01-27T19:41:43.193Z,47.46
2023-01-27T19:44:12.338Z,47.50
2023-01-27T19:46:42.838Z,47.55
2023-01-27T19:49:20.227Z,47.66
2023-01-27T19:51:49.277Z,47.67
2023-01-27T19:54:17.888Z,47.84
2023-01-27T19:56:46.763Z,47.84
2023-01-27T19:59:16.098Z,47.81
2023-01-27T20:01:45.711Z,47.97
2023-01-27T20:04:14.312Z,47.85
2023-01-27T20:06:43.032Z,47.94
2023-01-27T20:09:11.338Z,47.77
2023-01-27T20:11:42.251Z,48.15
2023-01-27T20:14:16.131Z,48.23
2023-01-27T20:16:46.188Z,47.97
2023-01-27T20:19:15.897Z,47.99
2023-01-27T20:21:46.492Z,48.00
2023-01-27T20:24:16.908Z,48.05
2023-01-27T20:26:45.822Z,48.38
2023-01-27T20:29:14.020Z,48.37
2023-01-27T20:31:43.025Z,48.13
2023-01-27T20:34:12.786Z,48.09
2023-01-27T20:36:42.136Z,48.47
2023-01-27T20:39:11.211Z,48.14
2023-01-27T20:41:39.394Z,48.55
2023-01-27T20:44:11.723Z,48.13
2023-01-27T20:46:40.111Z,48.17
2023-01-27T20:49:08.689Z,47.99
2023-01-27T20:51:37.749Z,48.17
2023-01-27T20:54:06.216Z,47.94
2023-01-27T20:56:34.943Z,48.46
2023-01-27T20:59:03.131Z,47.97
2023-01-27T21:01:31.424Z,47.76
2023-01-27T21:03:59.807Z,47.74
2023-01-27T21:06:28.421Z,48.22
2023-01-27T21:08:57.529Z,48.14
2023-01-27T21:11:25.709Z,48.23
2023-01-27T21:13:53.968Z,48.44
2023-01-27T21:16:22.044Z,48.27
2023-01-27T21:18:50.500Z,48.25
2023-01-27T21:21:27.671Z,48.08
2023-01-27T21:23:57.906Z,48.17
2023-01-27T21:26:27.044Z,48.21
2023-01-27T21:28:56.913Z,48.40
2023-01-27T21:31:25.646Z,48.49
2023-01-27T21:33:54.917Z,48.36
2023-01-27T21:36:23.122Z,48.41
2023-01-27T21:38:51.273Z,48.26
2023-01-27T21:41:22.403Z,48.42
2023-01-27T21:43:51.020Z,48.34
2023-01-27T21:46:19.248Z,48.07
2023-01-27T21:48:48.244Z,48.53
2023-01-27T21:51:16.893Z,48.31
2023-01-27T21:53:45.801Z,48.50
2023-01-27T21:56:14.414Z,48.47
2023-01-27T21:58:42.781Z,48.48
2023-01-27T22:01:11.568Z,48.61
2023-01-27T22:03:40.075Z,48.89
2023-01-27T22:06:09.599Z,48.66
2023-01-27T22:08:37.978Z,48.56
2023-01-27T22:11:12.601Z,48.56
2023-01-27T22:13:40.878Z,48.32
2023-01-27T22:16:14.432Z,48.60
2023-01-27T22:18:43.430Z,48.43
2023-01-27T22:21:12.102Z,48.45
2023-01-27T22:23:40.704Z,48.71
2023-01-27T22:26:10.012Z,48.62
2023-01-27T22:28:39.330Z,48.82
2023-01-27T22:31:07.903Z,48.63
2023-01-27T22:33:37.985Z,48.71
2023-01-27T22:36:06.403Z,49.01
2023-01-27T22:38:38.210Z,48.61
2023-01-27T22:41:06.586Z,48.81
2023-01-27T22:43:34.787Z,48.65
2023-01-27T22:46:04.370Z,48.92
2023-01-27T22:48:32.526Z,48.67
2023-01-27T22:51:05.403Z,48.74
2023-01-27T22:53:34.182Z,48.82
2023-01-27T22:56:04.557Z,48.97
2023-01-27T22:58:33.649Z,48.71
2023-01-27T23:01:06.268Z,49.20
2023-01-27T23:03:35.188Z,48.92
2023-01-27T23:06:05.994Z,48.91
2023-01-27T23:08:35.136Z,48.89
2023-01-27T23:11:06.035Z,48.94
2023-01-27T23:13:35.647Z,49.05
2023-01-27T23:16:04.200Z,49.35
2023-01-27T23:18:32.732Z,49.16
2023-01-27T23:21:08.261Z,49.37
2023-01-27T23:23:36.437Z,49.60
2023-01-27T23:26:07.548Z,49.58
2023-01-27T23:28:38.338Z,49.63
2023-01-27T23:31:12.019Z,49.58
2023-01-27T23:33:43.116Z,49.49
2023-01-27T23:36:13.735Z,49.57
2023-01-27T23:38:41.944Z,49.68
2023-01-27T23:41:13.895Z,49.59
2023-01-27T23:43:42.026Z,49.50
2023-01-27T23:46:12.396Z,49.49
2023-01-27T23:48:40.649Z,49.79
2023-01-27T23:51:10.720Z,49.86
2023-01-27T23:53:39.075Z,49.82
2023-01-27T23:56:12.231Z,49.94
2023-01-27T23:58:40.877Z,49.84
